createdAt,value
2019-02-26T00:00:17.167Z,66.74
2019-02-26T00:01:18.535Z,65.83
2019-02-26T00:02:17.302Z,67.08
2019-02-26T00:03:19.535Z,65.93
2019-02-26T00:04:15.894Z,66.77
2019-02-26T00:05:19.374Z,66.87
2019-02-26T00:06:18.559Z,66.24
2019-02-26T00:07:18.254Z,66.90
2019-02-26T00:08:19.410Z,67.63
2019-02-26T00:09:20.498Z,67.11
2019-02-26T00:10:16.833Z,67.03
2019-02-26T00:11:15.868Z,67.14
2019-02-26T00:12:15.803Z,67.14
2019-02-26T00:13:15.791Z,68.49
2019-02-26T00:14:17.707Z,68.42
2019-02-26T00:15:15.818Z,68.60
2019-02-26T00:16:17.708Z,69.77
2019-02-26T00:17:17.545Z,69.46
2019-02-26T00:18:16.798Z,69.81
2019-02-26T00:19:15.735Z,69.49
2019-02-26T00:20:17.575Z,69.49
2019-02-26T00:21:15.703Z,69.73
2019-02-26T00:22:16.444Z,69.49
2019-02-26T00:23:15.682Z,71.19
2019-02-26T00:24:16.782Z,71.50
2019-02-26T00:25:17.846Z,71.50
2019-02-26T00:26:17.637Z,71.22
2019-02-26T00:27:15.663Z,71.40
2019-02-26T00:28:17.500Z,72.16
2019-02-26T00:29:15.616Z,72.06
2019-02-26T00:30:16.662Z,72.06
2019-02-26T00:31:15.588Z,71.85
2019-02-26T00:32:16.165Z,72.19
2019-02-26T00:33:29.961Z,72.27
2019-02-26T00:34:16.862Z,71.53
2019-02-26T00:35:16.078Z,71.98
2019-02-26T00:36:15.566Z,72.09
2019-02-26T00:37:15.556Z,71.57
2019-02-26T00:38:17.670Z,72.19
2019-02-26T00:39:15.520Z,72.30
2019-02-26T00:40:17.987Z,72.09
2019-02-26T00:41:15.477Z,72.51
2019-02-26T00:42:19.555Z,72.82
2019-02-26T00:43:20.932Z,73.76
2019-02-26T00:44:18.577Z,73.97
2019-02-26T00:45:15.427Z,73.69
2019-02-26T00:46:15.416Z,72.85
2019-02-26T00:47:15.418Z,73.69
2019-02-26T00:48:15.396Z,73.79
2019-02-26T00:49:15.408Z,73.69
2019-02-26T00:50:16.604Z,74.11
2019-02-26T00:51:16.136Z,74.42
2019-02-26T00:52:15.721Z,74.56
2019-02-26T00:53:17.279Z,74.56
2019-02-26T00:54:15.361Z,75.15
2019-02-26T00:55:15.337Z,76.09
2019-02-26T00:56:15.301Z,76.02
2019-02-26T00:57:15.314Z,75.71
2019-02-26T00:58:15.275Z,75.08
2019-02-26T00:59:15.284Z,75.60
2019-02-26T01:00:15.280Z,75.71
2019-02-26T01:01:17.038Z,75.81
2019-02-26T01:02:15.243Z,75.60
2019-02-26T01:03:29.927Z,75.95
2019-02-26T01:04:15.247Z,75.85
2019-02-26T01:05:15.820Z,76.26
2019-02-26T01:06:15.207Z,76.37
2019-02-26T01:07:15.190Z,75.85
2019-02-26T01:08:15.791Z,76.06
2019-02-26T01:09:15.157Z,76.26
2019-02-26T01:10:16.305Z,77.62
2019-02-26T01:11:15.188Z,77.62
2019-02-26T01:12:16.603Z,77.97
2019-02-26T01:13:15.174Z,77.97
2019-02-26T01:14:17.945Z,77.66
2019-02-26T01:15:15.113Z,77.55
2019-02-26T01:16:15.101Z,76.93
2019-02-26T01:17:16.959Z,77.24
2019-02-26T01:18:15.063Z,77.45
2019-02-26T01:19:17.033Z,77.66
2019-02-26T01:20:15.038Z,77.55
2019-02-26T01:21:15.053Z,77.45
2019-02-26T01:22:15.031Z,77.55
2019-02-26T01:23:16.461Z,78.18
2019-02-26T01:24:15.009Z,78.28
2019-02-26T01:25:15.971Z,79.44
2019-02-26T01:26:14.998Z,78.49
2019-02-26T01:27:14.969Z,79.44
2019-02-26T01:28:16.474Z,79.12
2019-02-26T01:29:18.526Z,79.12
2019-02-26T01:30:21.278Z,79.22
2019-02-26T01:31:15.922Z,79.16
2019-02-26T01:32:15.557Z,79.26
2019-02-26T01:33:14.906Z,79.26
2019-02-26T01:34:15.779Z,79.36
2019-02-26T01:35:14.865Z,79.16
2019-02-26T01:36:16.222Z,79.68
2019-02-26T01:37:14.842Z,79.16
2019-02-26T01:38:16.528Z,79.30
2019-02-26T01:39:16.234Z,79.36
2019-02-26T01:40:16.393Z,79.26
2019-02-26T01:41:15.758Z,79.47
2019-02-26T01:42:17.392Z,79.05
2019-02-26T01:43:14.796Z,79.26
2019-02-26T01:44:14.767Z,80.03
2019-02-26T01:45:14.764Z,80.13
2019-02-26T01:46:16.415Z,80.03
2019-02-26T01:47:14.775Z,80.24
2019-02-26T01:48:16.678Z,80.13
2019-02-26T01:49:14.719Z,80.03
2019-02-26T01:50:16.050Z,80.24
2019-02-26T01:51:14.691Z,80.45
2019-02-26T01:52:15.098Z,80.87
2019-02-26T01:53:16.932Z,80.55
2019-02-26T01:54:16.673Z,80.24
2019-02-26T01:55:16.164Z,80.13
2019-02-26T01:56:14.655Z,80.45
2019-02-26T01:57:14.623Z,79.82
2019-02-26T01:58:16.553Z,79.82
2019-02-26T01:59:18.299Z,80.24
2019-02-26T02:00:14.613Z,80.27
2019-02-26T02:01:16.638Z,80.07
2019-02-26T02:02:17.378Z,79.96
2019-02-26T02:03:14.559Z,80.87
2019-02-26T02:04:15.043Z,80.55
2019-02-26T02:05:14.567Z,81.12
2019-02-26T02:06:16.006Z,81.53
2019-02-26T02:07:14.511Z,81.12
2019-02-26T02:08:15.488Z,81.22
2019-02-26T02:09:16.369Z,80.66
2019-02-26T02:10:14.537Z,80.27
2019-02-26T02:11:14.475Z,80.97
2019-02-26T02:12:14.466Z,80.69
2019-02-26T02:13:14.445Z,81.01
2019-02-26T02:14:15.404Z,80.27
2019-02-26T02:15:15.770Z,80.49
2019-02-26T02:16:14.435Z,80.38
2019-02-26T02:17:14.406Z,80.17
2019-02-26T02:18:14.495Z,80.69
2019-02-26T02:19:17.995Z,80.94
2019-02-26T02:20:16.409Z,80.94
2019-02-26T02:21:15.387Z,80.69
2019-02-26T02:22:16.341Z,80.73
2019-02-26T02:23:14.348Z,81.15
2019-02-26T02:24:15.576Z,81.63
2019-02-26T02:25:14.353Z,81.04
2019-02-26T02:26:15.672Z,81.04
2019-02-26T02:27:17.469Z,80.94
2019-02-26T02:28:16.728Z,80.94
2019-02-26T02:29:16.532Z,80.94
2019-02-26T02:30:21.697Z,81.04
2019-02-26T02:31:15.255Z,80.94
2019-02-26T02:32:14.299Z,81.04
2019-02-26T02:33:17.260Z,81.78
2019-02-26T02:34:15.220Z,81.67
2019-02-26T02:35:17.877Z,81.26
2019-02-26T02:36:14.884Z,81.57
2019-02-26T02:37:15.400Z,81.99
2019-02-26T02:38:16.663Z,81.67
2019-02-26T02:39:15.649Z,81.67
2019-02-26T02:40:14.153Z,81.78
2019-02-26T02:41:14.136Z,82.51
2019-02-26T02:42:16.276Z,81.99
2019-02-26T02:43:16.104Z,82.30
2019-02-26T02:44:15.380Z,82.20
2019-02-26T02:45:16.986Z,81.99
2019-02-26T02:46:15.078Z,81.36
2019-02-26T02:47:14.068Z,82.03
2019-02-26T02:48:14.229Z,81.99
2019-02-26T02:49:15.752Z,81.88
2019-02-26T02:50:15.200Z,81.67
2019-02-26T02:51:14.092Z,82.20
2019-02-26T02:52:14.018Z,81.71
2019-02-26T02:53:14.019Z,82.09
2019-02-26T02:54:15.551Z,82.13
2019-02-26T02:55:18.637Z,81.99
2019-02-26T02:56:16.066Z,82.30
2019-02-26T02:57:13.960Z,81.92
2019-02-26T02:58:17.305Z,81.88
2019-02-26T02:59:14.537Z,82.40
2019-02-26T03:00:13.971Z,82.55
2019-02-26T03:01:16.512Z,82.40
2019-02-26T03:02:15.041Z,82.03
2019-02-26T03:03:13.896Z,82.51
2019-02-26T03:04:17.270Z,82.09
2019-02-26T03:05:14.882Z,81.99
2019-02-26T03:06:13.857Z,82.23
2019-02-26T03:07:15.222Z,82.51
2019-02-26T03:08:15.829Z,82.40
2019-02-26T03:09:15.224Z,82.51
2019-02-26T03:10:13.853Z,83.03
2019-02-26T03:11:13.814Z,82.82
2019-02-26T03:12:14.424Z,82.62
2019-02-26T03:13:14.420Z,82.82
2019-02-26T03:14:16.047Z,82.34
2019-02-26T03:15:13.762Z,82.09
2019-02-26T03:16:15.811Z,82.30
2019-02-26T03:17:14.760Z,82.40
2019-02-26T03:18:14.907Z,82.09
2019-02-26T03:19:14.618Z,81.85
2019-02-26T03:20:13.698Z,81.01
2019-02-26T03:21:13.743Z,80.17
2019-02-26T03:22:17.386Z,79.19
2019-02-26T03:23:18.956Z,78.74
2019-02-26T03:24:13.655Z,77.14
2019-02-26T03:25:14.876Z,76.57
2019-02-26T03:26:15.154Z,75.85
2019-02-26T03:27:13.641Z,76.23
2019-02-26T03:28:13.619Z,75.81
2019-02-26T03:29:13.598Z,75.50
2019-02-26T03:30:20.266Z,75.18
2019-02-26T03:31:14.602Z,75.18
2019-02-26T03:32:13.589Z,74.45
2019-02-26T03:33:13.565Z,73.69
2019-02-26T03:34:19.015Z,73.79
2019-02-26T03:35:15.938Z,73.79
2019-02-26T03:36:14.583Z,74.32
2019-02-26T03:37:13.587Z,74.52
2019-02-26T03:38:15.329Z,74.45
2019-02-26T03:39:13.484Z,74.21
2019-02-26T03:40:13.479Z,74.63
2019-02-26T03:41:13.464Z,74.56
2019-02-26T03:42:16.170Z,75.18
2019-02-26T03:43:16.038Z,75.50
2019-02-26T03:44:13.439Z,75.74
2019-02-26T03:45:13.449Z,75.74
2019-02-26T03:46:13.405Z,75.98
2019-02-26T03:47:13.392Z,75.98
2019-02-26T03:48:13.403Z,75.98
2019-02-26T03:49:13.456Z,75.88
2019-02-26T03:50:13.359Z,75.98
2019-02-26T03:51:17.180Z,76.51
2019-02-26T03:52:15.867Z,75.78
2019-02-26T03:53:13.371Z,75.98
2019-02-26T03:54:13.314Z,76.30
2019-02-26T03:55:15.476Z,75.78
2019-02-26T03:56:14.794Z,75.98
2019-02-26T03:57:14.277Z,75.88
2019-02-26T03:58:13.277Z,76.16
2019-02-26T03:59:13.279Z,75.43
2019-02-26T04:00:14.953Z,75.50
2019-02-26T04:01:16.009Z,75.29
2019-02-26T04:02:15.458Z,75.50
2019-02-26T04:03:15.126Z,76.23
2019-02-26T04:04:13.241Z,75.85
2019-02-26T04:05:13.200Z,75.63
2019-02-26T04:06:13.204Z,75.74
2019-02-26T04:07:13.195Z,75.88
2019-02-26T04:08:13.162Z,76.20
2019-02-26T04:09:14.492Z,75.98
2019-02-26T04:10:13.159Z,77.66
2019-02-26T04:11:13.927Z,77.69
2019-02-26T04:12:15.366Z,77.80
2019-02-26T04:13:13.107Z,77.48
2019-02-26T04:14:17.347Z,77.20
2019-02-26T04:15:13.121Z,77.20
2019-02-26T04:16:13.093Z,77.31
2019-02-26T04:17:13.060Z,78.04
2019-02-26T04:18:13.044Z,78.67
2019-02-26T04:19:13.090Z,77.94
2019-02-26T04:20:13.859Z,77.42
2019-02-26T04:21:15.807Z,77.17
2019-02-26T04:22:15.136Z,77.20
2019-02-26T04:23:14.252Z,77.48
2019-02-26T04:24:13.050Z,77.59
2019-02-26T04:25:12.983Z,78.15
2019-02-26T04:26:18.512Z,77.73
2019-02-26T04:27:12.948Z,77.52
2019-02-26T04:28:12.984Z,77.10
2019-02-26T04:29:12.918Z,77.73
2019-02-26T04:30:13.665Z,77.62
2019-02-26T04:31:12.958Z,77.76
2019-02-26T04:32:15.064Z,78.08
2019-02-26T04:33:14.121Z,78.18
2019-02-26T04:34:12.872Z,77.76
2019-02-26T04:35:12.863Z,77.97
2019-02-26T04:36:14.878Z,78.18
2019-02-26T04:37:12.987Z,77.97
2019-02-26T04:38:12.827Z,78.50
2019-02-26T04:39:14.481Z,79.58
2019-02-26T04:40:14.125Z,79.27
2019-02-26T04:41:15.886Z,79.47
2019-02-26T04:42:16.825Z,79.90
2019-02-26T04:43:12.951Z,80.21
2019-02-26T04:44:12.787Z,80.21
2019-02-26T04:45:12.759Z,79.83
2019-02-26T04:46:13.630Z,79.83
2019-02-26T04:47:12.752Z,80.24
2019-02-26T04:48:14.868Z,80.04
2019-02-26T04:49:12.755Z,80.14
2019-02-26T04:50:12.700Z,80.35
2019-02-26T04:51:12.681Z,80.66
2019-02-26T04:52:14.313Z,80.35
2019-02-26T04:53:12.756Z,80.66
2019-02-26T04:54:17.318Z,80.80
2019-02-26T04:55:13.650Z,81.12
2019-02-26T04:56:15.016Z,81.08
2019-02-26T04:57:12.615Z,80.28
2019-02-26T04:58:15.588Z,80.28
2019-02-26T04:59:15.041Z,80.38
2019-02-26T05:00:12.597Z,80.84
2019-02-26T05:01:13.425Z,81.16
2019-02-26T05:02:12.559Z,81.68
2019-02-26T05:03:14.908Z,82.10
2019-02-26T05:04:12.556Z,81.47
2019-02-26T05:05:12.527Z,81.89
2019-02-26T05:06:12.525Z,81.57
2019-02-26T05:07:14.077Z,81.99
2019-02-26T05:08:14.740Z,81.89
2019-02-26T05:09:12.506Z,82.62
2019-02-26T05:10:12.493Z,81.99
2019-02-26T05:11:19.033Z,82.10
2019-02-26T05:12:13.448Z,82.10
2019-02-26T05:13:12.517Z,82.14
2019-02-26T05:14:15.399Z,82.56
2019-02-26T05:15:16.902Z,82.42
2019-02-26T05:16:12.389Z,82.98
2019-02-26T05:17:12.418Z,82.87
2019-02-26T05:18:13.354Z,83.18
2019-02-26T05:19:13.597Z,83.40
2019-02-26T05:20:15.164Z,83.71
2019-02-26T05:21:13.009Z,83.50
2019-02-26T05:22:12.351Z,83.61
2019-02-26T05:23:12.318Z,83.81
2019-02-26T05:24:14.603Z,83.71
2019-02-26T05:25:16.315Z,83.40
2019-02-26T05:26:15.232Z,83.29
2019-02-26T05:27:14.985Z,82.98
2019-02-26T05:28:14.754Z,83.29
2019-02-26T05:29:12.267Z,83.08
2019-02-26T05:30:13.946Z,83.50
2019-02-26T05:31:14.541Z,83.40
2019-02-26T05:32:12.207Z,83.50
2019-02-26T05:33:12.219Z,83.71
2019-02-26T05:34:14.761Z,84.34
2019-02-26T05:35:14.156Z,83.54
2019-02-26T05:36:14.396Z,83.71
2019-02-26T05:37:13.993Z,84.17
2019-02-26T05:38:12.167Z,84.23
2019-02-26T05:39:14.031Z,84.17
2019-02-26T05:40:13.377Z,84.55
2019-02-26T05:41:12.137Z,84.80
2019-02-26T05:42:12.113Z,84.55
2019-02-26T05:43:12.111Z,84.66
2019-02-26T05:44:12.149Z,84.59
2019-02-26T05:45:12.073Z,84.80
2019-02-26T05:46:12.072Z,84.69
2019-02-26T05:47:13.233Z,84.69
2019-02-26T05:48:12.727Z,84.38
2019-02-26T05:49:14.087Z,85.11
2019-02-26T05:50:16.178Z,84.91
2019-02-26T05:51:12.051Z,84.97
2019-02-26T05:52:12.034Z,85.28
2019-02-26T05:53:13.395Z,85.74
2019-02-26T05:54:14.807Z,85.91
2019-02-26T05:55:14.590Z,86.02
2019-02-26T05:56:14.459Z,85.91
2019-02-26T05:57:26.225Z,85.91
2019-02-26T05:58:15.810Z,86.02
2019-02-26T05:59:15.382Z,86.02
2019-02-26T06:00:14.523Z,85.91
2019-02-26T06:01:13.721Z,85.91
2019-02-26T06:02:14.196Z,85.60
2019-02-26T06:03:12.806Z,85.60
2019-02-26T06:04:14.868Z,85.39
2019-02-26T06:05:13.951Z,85.49
2019-02-26T06:06:11.838Z,85.91
2019-02-26T06:07:11.848Z,85.49
2019-02-26T06:08:11.843Z,85.71
2019-02-26T06:09:11.839Z,86.02
2019-02-26T06:10:11.797Z,85.88
2019-02-26T06:11:11.801Z,85.98
2019-02-26T06:12:11.767Z,86.23
2019-02-26T06:13:13.537Z,86.08
2019-02-26T06:14:12.627Z,85.98
2019-02-26T06:15:11.750Z,85.88
2019-02-26T06:16:11.729Z,85.77
2019-02-26T06:17:13.158Z,86.08
2019-02-26T06:18:11.729Z,85.98
2019-02-26T06:19:13.395Z,86.08
2019-02-26T06:20:11.725Z,86.19
2019-02-26T06:21:15.297Z,86.08
2019-02-26T06:22:14.502Z,85.56
2019-02-26T06:23:12.657Z,86.40
2019-02-26T06:24:11.643Z,85.88
2019-02-26T06:25:18.338Z,86.51
2019-02-26T06:26:14.829Z,86.19
2019-02-26T06:27:15.399Z,86.40
2019-02-26T06:28:13.547Z,86.61
2019-02-26T06:29:11.628Z,85.56
2019-02-26T06:30:12.170Z,86.19
2019-02-26T06:31:14.040Z,86.29
2019-02-26T06:32:12.049Z,86.29
2019-02-26T06:33:12.221Z,86.46
2019-02-26T06:34:13.785Z,86.46
2019-02-26T06:35:13.625Z,85.88
2019-02-26T06:36:11.507Z,85.52
2019-02-26T06:37:12.117Z,86.05
2019-02-26T06:38:11.709Z,85.52
2019-02-26T06:39:11.475Z,86.22
2019-02-26T06:40:11.482Z,86.22
2019-02-26T06:41:11.517Z,86.32
2019-02-26T06:42:12.211Z,86.00
2019-02-26T06:43:11.456Z,86.11
2019-02-26T06:44:11.455Z,85.27
2019-02-26T06:45:13.246Z,86.11
2019-02-26T06:46:12.371Z,86.11
2019-02-26T06:47:12.500Z,86.22
2019-02-26T06:48:14.694Z,86.53
2019-02-26T06:49:11.386Z,85.75
2019-02-26T06:50:13.124Z,86.18
2019-02-26T06:51:11.348Z,85.24
2019-02-26T06:52:13.044Z,85.13
2019-02-26T06:53:13.632Z,85.24
2019-02-26T06:54:11.296Z,85.41
2019-02-26T06:55:12.300Z,85.75
2019-02-26T06:56:11.348Z,85.72
2019-02-26T06:57:11.320Z,86.24
2019-02-26T06:58:11.284Z,86.04
2019-02-26T06:59:12.260Z,86.14
2019-02-26T07:00:11.260Z,85.93
2019-02-26T07:01:12.028Z,85.82
2019-02-26T07:02:11.466Z,86.31
2019-02-26T07:03:11.216Z,85.58
2019-02-26T07:04:12.914Z,85.36
2019-02-26T07:05:11.204Z,84.32
2019-02-26T07:06:11.246Z,85.05
2019-02-26T07:07:14.123Z,85.26
2019-02-26T07:08:11.148Z,85.26
2019-02-26T07:09:13.299Z,84.74
2019-02-26T07:10:16.005Z,84.70
2019-02-26T07:11:12.117Z,84.91
2019-02-26T07:12:11.145Z,84.80
2019-02-26T07:13:12.311Z,84.34
2019-02-26T07:14:11.167Z,84.14
2019-02-26T07:15:12.115Z,84.24
2019-02-26T07:16:11.922Z,84.56
2019-02-26T07:17:11.039Z,84.45
2019-02-26T07:18:15.029Z,84.24
2019-02-26T07:19:14.052Z,84.10
2019-02-26T07:20:11.047Z,83.37
2019-02-26T07:21:11.047Z,83.78
2019-02-26T07:22:11.651Z,84.31
2019-02-26T07:23:12.800Z,84.00
2019-02-26T07:24:10.965Z,83.68
2019-02-26T07:25:13.269Z,83.75
2019-02-26T07:26:13.133Z,83.64
2019-02-26T07:27:13.708Z,83.95
2019-02-26T07:28:10.953Z,83.85
2019-02-26T07:29:12.815Z,83.64
2019-02-26T07:30:10.943Z,83.85
2019-02-26T07:31:12.155Z,84.06
2019-02-26T07:32:12.344Z,84.12
2019-02-26T07:33:12.266Z,83.29
2019-02-26T07:34:10.940Z,82.67
2019-02-26T07:35:13.106Z,83.12
2019-02-26T07:36:10.854Z,82.81
2019-02-26T07:37:11.693Z,82.46
2019-02-26T07:38:10.809Z,82.56
2019-02-26T07:39:13.087Z,83.08
2019-02-26T07:40:13.002Z,82.56
2019-02-26T07:41:10.782Z,82.14
2019-02-26T07:42:11.608Z,81.83
2019-02-26T07:43:14.420Z,82.14
2019-02-26T07:44:15.398Z,81.73
2019-02-26T07:45:15.032Z,81.52
2019-02-26T07:46:12.700Z,81.79
2019-02-26T07:47:11.298Z,80.75
2019-02-26T07:48:10.691Z,80.54
2019-02-26T07:49:10.690Z,81.06
2019-02-26T07:50:12.283Z,80.85
2019-02-26T07:51:10.662Z,79.88
2019-02-26T07:52:10.685Z,79.88
2019-02-26T07:53:12.235Z,79.88
2019-02-26T07:54:10.637Z,79.88
2019-02-26T07:55:12.132Z,80.30
2019-02-26T07:56:10.623Z,79.57
2019-02-26T07:57:10.648Z,78.17
2019-02-26T07:58:11.513Z,77.76
2019-02-26T07:59:12.431Z,77.20
2019-02-26T08:00:10.588Z,77.34
2019-02-26T08:01:10.549Z,77.20
2019-02-26T08:02:11.332Z,75.43
2019-02-26T08:03:10.539Z,75.09
2019-02-26T08:04:32.360Z,74.32
2019-02-26T08:05:10.610Z,74.32
2019-02-26T08:06:12.144Z,73.97
2019-02-26T08:07:10.510Z,73.97
2019-02-26T08:08:12.078Z,73.66
2019-02-26T08:09:13.516Z,74.18
2019-02-26T08:10:12.249Z,73.66
2019-02-26T08:11:10.434Z,72.90
2019-02-26T08:12:11.275Z,73.52
2019-02-26T08:13:10.463Z,74.25
2019-02-26T08:14:10.414Z,73.73
2019-02-26T08:15:12.298Z,73.52
2019-02-26T08:16:10.389Z,72.69
2019-02-26T08:17:10.454Z,72.49
2019-02-26T08:18:10.408Z,72.69
2019-02-26T08:19:10.383Z,73.32
2019-02-26T08:20:12.863Z,73.52
2019-02-26T08:21:10.353Z,73.94
2019-02-26T08:22:10.312Z,74.04
2019-02-26T08:23:10.307Z,72.90
2019-02-26T08:24:12.388Z,73.21
2019-02-26T08:25:10.296Z,73.73
2019-02-26T08:26:10.273Z,73.73
2019-02-26T08:27:11.577Z,74.04
2019-02-26T08:28:10.277Z,73.83
2019-02-26T08:29:12.344Z,73.32
2019-02-26T08:30:12.125Z,73.21
2019-02-26T08:31:13.350Z,72.69
2019-02-26T08:32:13.788Z,72.76
2019-02-26T08:33:10.208Z,72.14
2019-02-26T08:34:12.657Z,72.42
2019-02-26T08:35:10.214Z,72.42
2019-02-26T08:36:13.559Z,70.62
2019-02-26T08:37:10.135Z,69.06
2019-02-26T08:38:10.172Z,68.96
2019-02-26T08:39:15.001Z,70.48
2019-02-26T08:40:10.160Z,69.03
2019-02-26T08:41:10.129Z,68.51
2019-02-26T08:42:10.082Z,68.72
2019-02-26T08:43:10.124Z,66.09
2019-02-26T08:44:10.061Z,65.96
2019-02-26T08:45:10.060Z,66.17
2019-02-26T08:46:11.727Z,65.20
2019-02-26T08:47:12.036Z,65.31
2019-02-26T08:48:10.017Z,65.31
2019-02-26T08:49:11.095Z,64.89
2019-02-26T08:50:11.920Z,64.34
2019-02-26T08:51:13.514Z,64.65
2019-02-26T08:52:11.009Z,62.87
2019-02-26T08:53:10.044Z,62.45
2019-02-26T08:54:09.949Z,61.49
2019-02-26T08:55:10.763Z,62.63
2019-02-26T08:56:09.927Z,61.46
2019-02-26T08:57:11.908Z,62.18
2019-02-26T08:58:10.717Z,61.25
2019-02-26T08:59:09.899Z,61.05
2019-02-26T09:00:09.894Z,61.77
2019-02-26T09:01:09.871Z,60.60
2019-02-26T09:02:09.902Z,60.71
2019-02-26T09:03:10.735Z,60.09
2019-02-26T09:04:09.826Z,60.58
2019-02-26T09:05:11.917Z,58.30
2019-02-26T09:06:13.234Z,60.16
2019-02-26T09:07:09.804Z,58.89
2019-02-26T09:08:12.829Z,58.48
2019-02-26T09:09:09.778Z,59.31
2019-02-26T09:10:10.768Z,58.48
2019-02-26T09:11:10.719Z,59.20
2019-02-26T09:12:09.782Z,59.20
2019-02-26T09:13:11.523Z,60.14
2019-02-26T09:14:11.550Z,59.28
2019-02-26T09:15:09.720Z,59.49
2019-02-26T09:16:09.718Z,60.44
2019-02-26T09:17:09.689Z,59.90
2019-02-26T09:18:09.699Z,58.97
2019-02-26T09:19:09.752Z,60.21
2019-02-26T09:20:12.220Z,60.31
2019-02-26T09:21:10.219Z,59.90
2019-02-26T09:22:11.878Z,58.25
2019-02-26T09:23:10.622Z,58.45
2019-02-26T09:24:09.649Z,59.08
2019-02-26T09:25:09.597Z,60.28
2019-02-26T09:26:09.606Z,57.40
2019-02-26T09:27:09.599Z,58.56
2019-02-26T09:28:09.602Z,58.43
2019-02-26T09:29:10.331Z,57.29
2019-02-26T09:30:11.709Z,57.09
2019-02-26T09:31:11.684Z,58.30
2019-02-26T09:32:11.186Z,57.47
2019-02-26T09:33:11.073Z,57.06
2019-02-26T09:34:09.487Z,57.68
2019-02-26T09:35:09.502Z,58.30
2019-02-26T09:36:12.627Z,57.26
2019-02-26T09:37:09.468Z,56.96
2019-02-26T09:38:09.448Z,57.06
2019-02-26T09:39:10.795Z,57.24
2019-02-26T09:40:09.465Z,57.34
2019-02-26T09:41:11.324Z,57.45
2019-02-26T09:42:09.462Z,57.45
2019-02-26T09:43:09.381Z,57.96
2019-02-26T09:44:11.601Z,55.49
2019-02-26T09:45:09.424Z,55.69
2019-02-26T09:46:12.401Z,54.94
2019-02-26T09:47:09.378Z,54.56
2019-02-26T09:48:10.402Z,55.66
2019-02-26T09:49:10.500Z,55.80
2019-02-26T09:50:10.355Z,55.57
2019-02-26T09:51:11.548Z,54.97
2019-02-26T09:52:09.304Z,55.77
2019-02-26T09:53:09.283Z,55.77
2019-02-26T09:54:10.943Z,56.80
2019-02-26T09:55:10.667Z,54.94
2019-02-26T09:56:09.240Z,55.66
2019-02-26T09:57:09.252Z,55.64
2019-02-26T09:58:09.243Z,55.02
2019-02-26T09:59:10.233Z,56.57
2019-02-26T10:00:09.293Z,56.67
2019-02-26T10:01:11.019Z,56.88
2019-02-26T10:02:09.216Z,56.26
2019-02-26T10:03:11.063Z,55.72
2019-02-26T10:04:09.186Z,56.23
2019-02-26T10:05:11.182Z,55.23
2019-02-26T10:06:11.261Z,54.92
2019-02-26T10:07:11.316Z,54.82
2019-02-26T10:08:09.141Z,54.28
2019-02-26T10:09:12.783Z,54.07
2019-02-26T10:10:11.479Z,53.58
2019-02-26T10:11:09.097Z,54.48
2019-02-26T10:12:12.283Z,54.79
2019-02-26T10:13:09.062Z,54.69
2019-02-26T10:14:10.212Z,55.00
2019-02-26T10:15:09.040Z,54.07
2019-02-26T10:16:09.053Z,54.69
2019-02-26T10:17:09.687Z,54.48
2019-02-26T10:18:09.503Z,54.46
2019-02-26T10:19:10.200Z,54.69
2019-02-26T10:20:09.499Z,54.77
2019-02-26T10:21:11.096Z,53.94
2019-02-26T10:22:12.600Z,54.35
2019-02-26T10:23:08.957Z,54.46
2019-02-26T10:24:08.945Z,55.38
2019-02-26T10:25:08.912Z,54.56
2019-02-26T10:26:10.681Z,55.26
2019-02-26T10:27:11.416Z,55.46
2019-02-26T10:28:11.564Z,55.15
2019-02-26T10:29:08.885Z,54.22
2019-02-26T10:30:11.295Z,54.53
2019-02-26T10:31:09.722Z,55.77
2019-02-26T10:32:11.199Z,54.33
2019-02-26T10:33:08.817Z,53.20
2019-02-26T10:34:12.443Z,54.33
2019-02-26T10:35:11.913Z,54.72
2019-02-26T10:36:11.174Z,55.15
2019-02-26T10:37:08.775Z,54.61
2019-02-26T10:38:11.577Z,52.56
2019-02-26T10:39:08.751Z,54.51
2019-02-26T10:40:10.204Z,54.61
2019-02-26T10:41:08.752Z,53.38
2019-02-26T10:42:08.714Z,54.00
2019-02-26T10:43:08.701Z,54.82
2019-02-26T10:44:08.683Z,54.41
2019-02-26T10:45:08.709Z,54.61
2019-02-26T10:46:08.751Z,55.33
2019-02-26T10:47:10.569Z,55.64
2019-02-26T10:48:08.659Z,54.00
2019-02-26T10:49:08.630Z,53.07
2019-02-26T10:50:10.140Z,54.82
2019-02-26T10:51:08.629Z,54.10
2019-02-26T10:52:10.842Z,54.38
2019-02-26T10:53:13.154Z,53.87
2019-02-26T10:54:12.156Z,54.49
2019-02-26T10:55:12.831Z,53.89
2019-02-26T10:56:09.594Z,52.22
2019-02-26T10:57:11.305Z,51.40
2019-02-26T10:58:12.150Z,52.64
2019-02-26T10:59:09.383Z,51.30
2019-02-26T11:00:10.822Z,52.84
2019-02-26T11:01:08.493Z,52.76
2019-02-26T11:02:08.512Z,53.15
2019-02-26T11:03:09.088Z,53.77
2019-02-26T11:04:08.454Z,52.33
2019-02-26T11:05:10.680Z,51.71
2019-02-26T11:06:10.051Z,53.05
2019-02-26T11:07:10.998Z,51.81
2019-02-26T11:08:09.385Z,51.28
2019-02-26T11:09:08.431Z,52.51
2019-02-26T11:10:08.395Z,51.89
2019-02-26T11:11:10.050Z,53.23
2019-02-26T11:12:08.682Z,53.23
2019-02-26T11:13:08.357Z,52.30
2019-02-26T11:14:10.450Z,53.02
2019-02-26T11:15:09.238Z,52.69
2019-02-26T11:16:08.319Z,52.51
2019-02-26T11:17:08.344Z,53.00
2019-02-26T11:18:11.492Z,52.59
2019-02-26T11:19:10.366Z,51.56
2019-02-26T11:20:08.282Z,52.17
2019-02-26T11:21:08.279Z,52.79
2019-02-26T11:22:08.252Z,52.46
2019-02-26T11:23:09.043Z,53.17
2019-02-26T11:24:08.629Z,53.28
2019-02-26T11:25:08.259Z,53.17
2019-02-26T11:26:10.698Z,52.74
2019-02-26T11:27:08.227Z,52.64
2019-02-26T11:28:10.532Z,52.74
2019-02-26T11:29:08.186Z,52.41
2019-02-26T11:30:08.153Z,50.46
2019-02-26T11:31:09.098Z,49.43
2019-02-26T11:32:10.222Z,48.92
2019-02-26T11:33:10.573Z,50.97
2019-02-26T11:34:10.981Z,49.51
2019-02-26T11:35:09.098Z,48.90
2019-02-26T11:36:10.604Z,48.90
2019-02-26T11:37:08.952Z,48.92
2019-02-26T11:38:09.251Z,47.38
2019-02-26T11:39:09.286Z,50.67
2019-02-26T11:40:08.041Z,51.36
2019-02-26T11:41:08.031Z,49.93
2019-02-26T11:42:08.018Z,48.18
2019-02-26T11:43:11.757Z,49.41
2019-02-26T11:44:12.486Z,50.21
2019-02-26T11:45:09.817Z,47.44
2019-02-26T11:46:08.753Z,47.34
2019-02-26T11:47:08.646Z,47.36
2019-02-26T11:48:08.789Z,48.90
2019-02-26T11:49:09.453Z,49.72
2019-02-26T11:50:10.097Z,48.59
2019-02-26T11:51:07.915Z,48.80
2019-02-26T11:52:08.850Z,49.72
2019-02-26T11:53:09.925Z,51.36
2019-02-26T11:54:10.027Z,47.46
2019-02-26T11:55:09.422Z,46.64
2019-02-26T11:56:07.867Z,47.26
2019-02-26T11:57:10.282Z,46.23
2019-02-26T11:58:10.128Z,46.95
2019-02-26T11:59:11.233Z,46.36
2019-02-26T12:00:09.205Z,46.54
2019-02-26T12:01:07.859Z,47.28
2019-02-26T12:02:07.792Z,47.18
2019-02-26T12:03:07.786Z,48.92
2019-02-26T12:04:08.537Z,50.05
2019-02-26T12:05:08.789Z,50.46
2019-02-26T12:06:07.745Z,48.41
2019-02-26T12:07:09.801Z,49.54
2019-02-26T12:08:07.718Z,49.23
2019-02-26T12:09:08.782Z,48.22
2019-02-26T12:10:10.364Z,49.35
2019-02-26T12:11:12.398Z,48.10
2019-02-26T12:12:09.221Z,49.15
2019-02-26T12:13:07.673Z,47.89
2019-02-26T12:14:08.294Z,49.13
2019-02-26T12:15:11.916Z,50.46
2019-02-26T12:16:07.629Z,49.41
2019-02-26T12:17:07.641Z,50.95
2019-02-26T12:18:09.882Z,48.28
2019-02-26T12:19:08.704Z,47.08
2019-02-26T12:20:07.588Z,48.59
2019-02-26T12:21:10.177Z,46.87
2019-02-26T12:22:07.568Z,47.97
2019-02-26T12:23:08.057Z,48.08
2019-02-26T12:24:09.240Z,48.18
2019-02-26T12:25:08.933Z,47.05
2019-02-26T12:26:07.518Z,47.56
2019-02-26T12:27:09.786Z,47.88
2019-02-26T12:28:08.249Z,49.21
2019-02-26T12:29:07.495Z,48.88
2019-02-26T12:30:09.905Z,49.08
2019-02-26T12:31:09.991Z,46.50
2019-02-26T12:32:08.456Z,48.96
2019-02-26T12:33:09.955Z,47.52
2019-02-26T12:34:09.141Z,47.09
2019-02-26T12:35:08.705Z,46.58
2019-02-26T12:36:09.761Z,47.09
2019-02-26T12:37:09.828Z,47.58
2019-02-26T12:38:18.120Z,45.02
2019-02-26T12:39:08.395Z,45.84
2019-02-26T12:40:07.376Z,44.94
2019-02-26T12:41:09.070Z,47.17
2019-02-26T12:42:10.436Z,46.48
2019-02-26T12:43:11.063Z,46.99
2019-02-26T12:44:10.940Z,47.89
2019-02-26T12:45:09.902Z,46.99
2019-02-26T12:46:08.474Z,46.78
2019-02-26T12:47:07.288Z,47.09
2019-02-26T12:48:10.281Z,47.78
2019-02-26T12:49:11.695Z,46.35
2019-02-26T12:50:09.721Z,47.07
2019-02-26T12:51:07.698Z,45.82
2019-02-26T12:52:07.227Z,45.23